Time;durP1;ratioP1;P1;durP2;ratioP2;P2;SDS_P1;SDS_P2;PMS_P1;PMS_P2;Temp;Humidity;BMP_temperature;BMP_pressure;BME280_temperature;BME280_humidity;BME280_pressure;Samples;Min_cycle;Max_cycle;Signal;HPM_P1;HPM_P2
2022/05/16 00:02:11;;;;;;;;;;;;;;;18.88;nan;99365.47;4956152;28;20445;-75
2022/05/16 00:04:39;;;;;;;;;;;;;;;18.91;nan;99370.47;4956064;28;20287;-75
2022/05/16 00:07:05;;;;;;;;;;;;;;;18.93;nan;99375.63;4961743;28;20016;-74
2022/05/16 00:09:30;;;;;;;;;;;;;;;18.94;nan;99382.63;4955226;28;20011;-75
2022/05/16 00:11:55;;;;;;;;;;;;;;;18.86;nan;99385.22;4956984;28;20183;-75
2022/05/16 00:14:21;;;;;;;;;;;;;;;18.72;nan;99392.75;4955839;28;20088;-75
2022/05/16 00:16:46;;;;;;;;;;;;;;;18.60;nan;99391.31;4960424;28;20444;-75
2022/05/16 00:19:11;;;;;;;;;;;;;;;18.44;nan;99388.53;4960452;28;19952;-75
2022/05/16 00:21:37;;;;;;;;;;;;;;;18.38;nan;99386.50;4957913;28;20377;-75
2022/05/16 00:24:03;;;;;;;;;;;;;;;18.35;nan;99391.13;4951772;28;19939;-75
2022/05/16 00:26:29;;;;;;;;;;;;;;;18.34;nan;99388.63;4960045;28;19929;-75
2022/05/16 00:28:54;;;;;;;;;;;;;;;18.32;nan;99396.75;4957698;28;19933;-75
2022/05/16 00:31:20;;;;;;;;;;;;;;;18.31;nan;99399.56;4959364;28;20591;-76
2022/05/16 00:33:45;;;;;;;;;;;;;;;18.31;nan;99416.38;4955891;28;19965;-75
2022/05/16 00:36:10;;;;;;;;;;;;;;;18.26;nan;99397.38;4958058;28;20024;-75
2022/05/16 00:38:36;;;;;;;;;;;;;;;18.25;nan;99394.84;4957647;28;20362;-75
2022/05/16 00:41:02;;;;;;;;;;;;;;;18.22;nan;99401.31;4957849;28;20076;-75
2022/05/16 00:44:00;;;;;;;;;;;;;;;18.20;nan;99403.31;4954708;28;19972;-75
2022/05/16 00:46:27;;;;;;;;;;;;;;;18.21;nan;99394.31;4938326;28;19985;-75
2022/05/16 00:48:52;;;;;;;;;;;;;;;18.17;nan;99386.78;4958776;28;20825;-75
2022/05/16 00:51:20;;;;;;;;;;;;;;;18.14;nan;99387.94;4949891;28;20433;-75
2022/05/16 00:53:46;;;;;;;;;;;;;;;18.12;nan;99382.78;4950519;28;20052;-75
2022/05/16 00:56:11;;;;;;;;;;;;;;;18.14;nan;99374.63;4952604;28;19981;-75
2022/05/16 00:58:39;;;;;;;;;;;;;;;18.11;nan;99380.25;4962259;28;20059;-75
2022/05/16 01:04:47;;;;;;;;;;;;;;;18.09;nan;99377.78;4954372;28;19973;-75
2022/05/16 01:06:36;;;;;;;;;;;;;;;18.13;nan;99368.50;4954878;28;19993;-75
2022/05/16 01:09:01;;;;;;;;;;;;;;;18.11;nan;99372.28;4957140;28;19969;-75
2022/05/16 01:11:27;;;;;;;;;;;;;;;18.09;nan;99384.88;4954597;28;19994;-75
2022/05/16 01:13:52;;;;;;;;;;;;;;;18.09;nan;99385.75;4955631;28;20424;-74
2022/05/16 01:16:18;;;;;;;;;;;;;;;18.06;nan;99382.53;4953554;28;20528;-75
2022/05/16 01:18:44;;;;;;;;;;;;;;;18.00;nan;99385.81;4952838;28;19990;-74
2022/05/16 01:21:12;;;;;;;;;;;;;;;17.98;nan;99387.78;4955289;28;19977;-75
2022/05/16 01:23:40;;;;;;;;;;;;;;;17.98;nan;99382.47;4954869;28;20084;-75
2022/05/16 01:26:08;;;;;;;;;;;;;;;17.94;nan;99378.44;4958554;28;19991;-75
2022/05/16 01:28:33;;;;;;;;;;;;;;;17.94;nan;99392.56;4954433;28;20031;-75
2022/05/16 01:30:58;;;;;;;;;;;;;;;17.96;nan;99392.38;4958171;28;20449;-75
2022/05/16 01:33:25;;;;;;;;;;;;;;;17.95;nan;99388.91;4950901;28;20223;-75
2022/05/16 01:35:50;;;;;;;;;;;;;;;17.91;nan;99377.75;4957916;28;20079;-75
2022/05/16 01:38:19;;;;;;;;;;;;;;;17.87;nan;99375.53;4956209;28;20095;-75
2022/05/16 01:41:07;;;;;;;;;;;;;;;17.82;nan;99377.81;4953212;28;20505;-75
2022/05/16 01:43:34;;;;;;;;;;;;;;;17.79;nan;99380.75;4949791;28;19992;-75
2022/05/16 01:45:59;;;;;;;;;;;;;;;17.76;nan;99379.22;4954220;28;20334;-75
2022/05/16 01:48:29;;;;;;;;;;;;;;;17.73;nan;99381.34;4955202;28;20079;-75
2022/05/16 01:50:57;;;;;;;;;;;;;;;17.73;nan;99378.69;4958673;28;19975;-75
2022/05/16 01:53:22;;;;;;;;;;;;;;;17.75;nan;99374.88;4953794;28;19969;-75
2022/05/16 01:55:47;;;;;;;;;;;;;;;17.75;nan;99371.41;4955589;28;19985;-75
2022/05/16 01:58:12;;;;;;;;;;;;;;;17.73;nan;99373.38;4956358;28;20452;-75
2022/05/16 02:00:38;;;;;;;;;;;;;;;17.74;nan;99381.19;4958579;28;19969;-75
2022/05/16 02:03:05;;;;;;;;;;;;;;;17.76;nan;99387.19;4940737;28;20027;-75
2022/05/16 02:05:31;;;;;;;;;;;;;;;17.78;nan;99384.38;4956634;28;20011;-75
2022/05/16 02:07:56;;;;;;;;;;;;;;;17.75;nan;99377.53;4956857;28;19972;-75
2022/05/16 02:10:23;;;;;;;;;;;;;;;17.75;nan;99371.41;4953594;28;19984;-75
2022/05/16 02:12:49;;;;;;;;;;;;;;;17.74;nan;99370.56;4958258;28;20012;-75
2022/05/16 02:15:21;;;;;;;;;;;;;;;17.75;nan;99372.22;4954322;28;20068;-75
2022/05/16 02:17:46;;;;;;;;;;;;;;;17.72;nan;99369.03;4954771;28;19969;-75
2022/05/16 02:20:12;;;;;;;;;;;;;;;17.68;nan;99374.63;4958617;28;19995;-75
2022/05/16 02:25:21;;;;;;;;;;;;;;;17.53;nan;99378.78;4952954;28;19989;-75
2022/05/16 02:27:48;;;;;;;;;;;;;;;17.43;nan;99378.00;4954772;28;19971;-75
2022/05/16 02:30:14;;;;;;;;;;;;;;;17.37;nan;99374.13;4955076;28;19961;-75
2022/05/16 02:32:39;;;;;;;;;;;;;;;17.35;nan;99365.44;4949844;28;19992;-75
2022/05/16 02:35:05;;;;;;;;;;;;;;;17.32;nan;99375.53;4956087;28;20008;-75
2022/05/16 02:37:30;;;;;;;;;;;;;;;17.28;nan;99385.59;4954584;28;20012;-74
2022/05/16 02:39:56;;;;;;;;;;;;;;;17.28;nan;99392.72;4954146;28;19982;-75
2022/05/16 02:42:21;;;;;;;;;;;;;;;17.25;nan;99391.19;4951777;28;20606;-75
2022/05/16 02:44:46;;;;;;;;;;;;;;;17.24;nan;99393.03;4948638;28;20080;-75
2022/05/16 02:47:13;;;;;;;;;;;;;;;17.25;nan;99396.50;4953479;28;19973;-75
2022/05/16 02:49:38;;;;;;;;;;;;;;;17.26;nan;99400.84;4954113;28;20469;-75
2022/05/16 02:52:04;;;;;;;;;;;;;;;17.24;nan;99398.31;4955059;28;19984;-75
2022/05/16 02:54:29;;;;;;;;;;;;;;;17.24;nan;99394.84;4956336;28;20027;-75
2022/05/16 02:56:54;;;;;;;;;;;;;;;17.24;nan;99397.50;4957504;28;19972;-75
2022/05/16 02:59:20;;;;;;;;;;;;;;;17.19;nan;99397.94;4953724;28;20979;-75
2022/05/16 03:01:45;;;;;;;;;;;;;;;17.18;nan;99393.63;4956126;28;20008;-75
2022/05/16 03:04:10;;;;;;;;;;;;;;;17.19;nan;99386.47;4955059;28;20028;-75
2022/05/16 03:06:35;;;;;;;;;;;;;;;17.18;nan;99385.66;4956776;28;20032;-76
2022/05/16 03:09:01;;;;;;;;;;;;;;;17.19;nan;99391.78;4957208;28;19979;-75
2022/05/16 03:11:26;;;;;;;;;;;;;;;17.21;nan;99389.84;4955894;28;20021;-75
2022/05/16 03:13:51;;;;;;;;;;;;;;;17.21;nan;99390.66;4954799;28;19972;-75
2022/05/16 03:16:17;;;;;;;;;;;;;;;17.18;nan;99398.91;4953976;28;20354;-76
2022/05/16 03:18:43;;;;;;;;;;;;;;;17.11;nan;99392.50;4959055;28;19993;-75
2022/05/16 03:21:09;;;;;;;;;;;;;;;17.03;nan;99400.34;4935608;28;20032;-75
2022/05/16 03:23:35;;;;;;;;;;;;;;;16.96;nan;99391.31;4938479;29;20012;-75
2022/05/16 03:26:00;;;;;;;;;;;;;;;16.93;nan;99396.88;4938164;29;19989;-75
2022/05/16 03:28:25;;;;;;;;;;;;;;;16.90;nan;99398.00;4934348;29;20445;-75
2022/05/16 03:30:51;;;;;;;;;;;;;;;16.91;nan;99396.22;4927515;28;20013;-75
2022/05/16 03:33:17;;;;;;;;;;;;;;;16.93;nan;99397.75;4927796;29;20005;-75
2022/05/16 03:35:42;;;;;;;;;;;;;;;16.94;nan;99388.78;4926766;29;20133;-75
2022/05/16 03:38:07;;;;;;;;;;;;;;;16.94;nan;99391.44;4927348;29;19978;-75
2022/05/16 03:40:42;;;;;;;;;;;;;;;16.92;nan;99392.56;4927077;29;19962;-75
2022/05/16 03:43:07;;;;;;;;;;;;;;;16.91;nan;99391.75;4927728;29;19969;-75
2022/05/16 03:45:33;;;;;;;;;;;;;;;16.91;nan;99386.44;4927666;29;19985;-75
2022/05/16 03:47:58;;;;;;;;;;;;;;;16.87;nan;99393.00;4927659;29;19974;-75
2022/05/16 03:50:23;;;;;;;;;;;;;;;16.87;nan;99382.38;4927558;29;20390;-75
2022/05/16 03:52:49;;;;;;;;;;;;;;;16.88;nan;99385.88;4926820;29;20454;-75
2022/05/16 03:55:16;;;;;;;;;;;;;;;16.90;nan;99394.53;4926856;29;19977;-75
2022/05/16 03:57:41;;;;;;;;;;;;;;;16.91;nan;99393.56;4926879;29;20068;-75
2022/05/16 04:00:12;;;;;;;;;;;;;;;16.92;nan;99396.06;4928518;29;20072;-75
2022/05/16 04:02:38;;;;;;;;;;;;;;;16.92;nan;99392.56;4930441;29;19973;-75
2022/05/16 04:05:04;;;;;;;;;;;;;;;16.92;nan;99396.06;4930332;29;20816;-75
2022/05/16 04:07:30;;;;;;;;;;;;;;;16.93;nan;99397.75;4931130;29;20573;-75
2022/05/16 04:09:55;;;;;;;;;;;;;;;16.96;nan;99396.63;4931345;29;19969;-75
2022/05/16 04:12:20;;;;;;;;;;;;;;;16.97;nan;99392.97;4930376;29;19973;-75
2022/05/16 04:14:47;;;;;;;;;;;;;;;16.96;nan;99402.75;4928995;29;20394;-74
2022/05/16 04:17:12;;;;;;;;;;;;;;;16.97;nan;99393.81;4930083;29;20406;-75
2022/05/16 04:19:37;;;;;;;;;;;;;;;17.00;nan;99396.16;4930234;29;20047;-75
2022/05/16 04:22:03;;;;;;;;;;;;;;;17.05;nan;99400.22;4930237;29;19965;-75
2022/05/16 04:24:28;;;;;;;;;;;;;;;17.06;nan;99397.41;4929239;29;20075;-75
2022/05/16 04:26:53;;;;;;;;;;;;;;;17.05;nan;99400.22;4929800;29;20596;-69
2022/05/16 04:29:19;;;;;;;;;;;;;;;17.01;nan;99403.16;4929159;29;20031;-73
2022/05/16 04:31:44;;;;;;;;;;;;;;;16.94;nan;99407.38;4929014;29;19965;-74
2022/05/16 04:34:09;;;;;;;;;;;;;;;16.94;nan;99415.31;4929629;29;19987;-71
2022/05/16 04:36:39;;;;;;;;;;;;;;;16.87;nan;99419.50;4928928;29;20059;-69
2022/05/16 04:39:04;;;;;;;;;;;;;;;16.81;nan;99420.09;4928267;29;19990;-69
2022/05/16 04:44:13;;;;;;;;;;;;;;;16.76;nan;99439.03;4949616;28;19965;-71
2022/05/16 04:46:38;;;;;;;;;;;;;;;16.79;nan;99435.31;4948054;28;19972;-71
2022/05/16 04:49:04;;;;;;;;;;;;;;;16.93;nan;99440.19;4959289;28;20028;-72
2022/05/16 04:51:29;;;;;;;;;;;;;;;17.14;nan;99439.16;4948692;28;19981;-71
2022/05/16 04:53:54;;;;;;;;;;;;;;;17.38;nan;99439.50;4953933;28;19977;-70
2022/05/16 04:56:20;;;;;;;;;;;;;;;17.69;nan;99448.03;4947943;28;19992;-73
2022/05/16 04:58:45;;;;;;;;;;;;;;;18.06;nan;99448.97;4959261;28;20560;-73
2022/05/16 05:01:11;;;;;;;;;;;;;;;18.51;nan;99448.13;4965027;28;19975;-73
2022/05/16 05:03:36;;;;;;;;;;;;;;;18.99;nan;99455.69;4942887;28;20478;-73
2022/05/16 05:06:01;;;;;;;;;;;;;;;19.40;nan;99455.13;4996751;23;20553;-77
2022/05/16 05:08:27;;;;;;;;;;;;;;;19.69;nan;99459.31;5012219;28;20094;-76
2022/05/16 05:16:22;;;;;;;;;;;;;;;20.50;nan;99464.84;5024855;28;20414;-79
2022/05/16 05:18:47;;;;;;;;;;;;;;;20.80;nan;99470.59;5025771;28;20391;-75
2022/05/16 05:21:12;;;;;;;;;;;;;;;21.06;nan;99466.88;5029359;28;19972;-75
2022/05/16 05:23:41;;;;;;;;;;;;;;;21.21;nan;99479.38;5023525;28;20062;-78
2022/05/16 05:26:07;;;;;;;;;;;;;;;21.32;nan;99480.03;5020579;28;20082;-77
2022/05/16 05:28:33;;;;;;;;;;;;;;;21.37;nan;99483.91;5026710;28;19971;-78
2022/05/16 05:30:58;;;;;;;;;;;;;;;21.42;nan;99492.25;5021292;28;20178;-76
2022/05/16 05:33:24;;;;;;;;;;;;;;;21.43;nan;99487.72;5022601;28;19996;-77
2022/05/16 05:35:49;;;;;;;;;;;;;;;21.38;nan;99484.72;5026714;28;19995;-75
2022/05/16 05:38:14;;;;;;;;;;;;;;;21.37;nan;99488.38;5026356;28;20048;-76
2022/05/16 05:40:40;;;;;;;;;;;;;;;21.46;nan;99491.91;5024537;28;19972;-77
2022/05/16 05:43:06;;;;;;;;;;;;;;;21.53;nan;99500.91;5026463;28;20041;-74
2022/05/16 05:45:32;;;;;;;;;;;;;;;21.55;nan;99499.75;5020959;28;20445;-76
2022/05/16 05:47:57;;;;;;;;;;;;;;;21.50;nan;99502.09;5022306;28;19988;-78
2022/05/16 05:50:23;;;;;;;;;;;;;;;21.48;nan;99500.59;5024171;28;20436;-78
2022/05/16 05:52:48;;;;;;;;;;;;;;;21.59;nan;99518.94;5003202;28;19992;-78
2022/05/16 05:55:14;;;;;;;;;;;;;;;21.79;nan;99493.50;5021862;28;19987;-78
2022/05/16 05:57:39;;;;;;;;;;;;;;;22.04;nan;99506.75;5024331;28;19964;-75
2022/05/16 06:00:05;;;;;;;;;;;;;;;22.28;nan;99509.34;5016662;28;20087;-77
2022/05/16 06:02:31;;;;;;;;;;;;;;;22.45;nan;99504.72;5018390;28;19964;-78
2022/05/16 06:04:57;;;;;;;;;;;;;;;22.48;nan;99503.53;5016530;28;19984;-74
2022/05/16 06:07:23;;;;;;;;;;;;;;;22.38;nan;99505.59;5017557;28;19975;-76
2022/05/16 06:09:48;;;;;;;;;;;;;;;22.21;nan;99516.38;5016247;28;19975;-74
2022/05/16 06:12:13;;;;;;;;;;;;;;;22.08;nan;99524.94;5016410;28;20280;-77
2022/05/16 06:14:43;;;;;;;;;;;;;;;22.05;nan;99530.63;5021188;28;19976;-76
2022/05/16 06:17:09;;;;;;;;;;;;;;;22.07;nan;99530.47;5017105;28;20028;-77
2022/05/16 06:19:36;;;;;;;;;;;;;;;22.04;nan;99528.97;5020255;28;20063;-74
2022/05/16 06:22:02;;;;;;;;;;;;;;;22.06;nan;99539.50;5020235;28;19968;-77
2022/05/16 06:27:11;;;;;;;;;;;;;;;22.37;nan;99544.91;5019548;28;20055;-77
2022/05/16 06:29:37;;;;;;;;;;;;;;;22.94;nan;99551.75;5013980;28;20062;-76
2022/05/16 06:32:02;;;;;;;;;;;;;;;23.50;nan;99557.66;5019012;28;19992;-77
2022/05/16 06:34:27;;;;;;;;;;;;;;;24.01;nan;99563.19;5022060;28;19945;-78
2022/05/16 06:36:53;;;;;;;;;;;;;;;24.46;nan;99547.88;5017279;28;19950;-77
2022/05/16 06:39:18;;;;;;;;;;;;;;;24.73;nan;99558.91;5021447;28;19965;-74
2022/05/16 06:41:43;;;;;;;;;;;;;;;24.63;nan;99559.25;5024179;28;20051;-78
2022/05/16 06:44:14;;;;;;;;;;;;;;;24.61;nan;99560.44;5026454;23;19967;-73
2022/05/16 06:46:40;;;;;;;;;;;;;;;24.84;nan;99568.31;5003935;28;20366;-72
2022/05/16 06:49:05;;;;;;;;;;;;;;;25.08;nan;99569.81;5003490;28;19937;-72
2022/05/16 06:51:30;;;;;;;;;;;;;;;25.30;nan;99571.50;5004318;28;19946;-72
2022/05/16 06:53:56;;;;;;;;;;;;;;;25.27;nan;99585.31;5003840;28;20029;-73
2022/05/16 06:56:21;;;;;;;;;;;;;;;25.45;nan;99578.63;5003400;28;19950;-72
2022/05/16 06:58:47;;;;;;;;;;;;;;;25.39;nan;99577.56;5004420;28;20545;-72
2022/05/16 07:01:21;;;;;;;;;;;;;;;25.20;nan;99578.22;5003852;28;19927;-73
2022/05/16 07:03:46;;;;;;;;;;;;;;;25.24;nan;99583.00;5001188;28;19934;-73
2022/05/16 07:06:14;;;;;;;;;;;;;;;25.16;nan;99580.44;5003979;28;19954;-73
2022/05/16 07:08:40;;;;;;;;;;;;;;;25.09;nan;99595.66;5003819;28;19939;-73
2022/05/16 07:11:05;;;;;;;;;;;;;;;24.91;nan;99604.16;5003747;28;19938;-73
2022/05/16 07:13:31;;;;;;;;;;;;;;;24.73;nan;99615.31;5003311;28;19942;-73
2022/05/16 07:15:56;;;;;;;;;;;;;;;24.59;nan;99608.13;5019548;28;19974;-73
2022/05/16 07:18:23;;;;;;;;;;;;;;;24.54;nan;99613.22;5003324;28;19950;-72
2022/05/16 07:20:48;;;;;;;;;;;;;;;24.64;nan;99621.84;5003394;28;20436;-72
2022/05/16 07:23:15;;;;;;;;;;;;;;;24.59;nan;99613.50;5004001;28;20021;-73
2022/05/16 07:28:24;;;;;;;;;;;;;;;24.64;nan;99614.59;5003519;28;20402;-73
2022/05/16 07:30:50;;;;;;;;;;;;;;;24.91;nan;99620.28;5003506;28;19960;-73
2022/05/16 07:33:15;;;;;;;;;;;;;;;25.00;nan;99624.50;5002473;28;19968;-73
2022/05/16 07:35:41;;;;;;;;;;;;;;;25.03;nan;99634.88;5005029;28;20359;-73
2022/05/16 07:38:06;;;;;;;;;;;;;;;25.10;nan;99641.16;5006173;28;19964;-73
2022/05/16 07:40:34;;;;;;;;;;;;;;;25.02;nan;99635.91;5007108;28;19994;-73
2022/05/16 07:42:59;;;;;;;;;;;;;;;24.77;nan;99648.03;5007169;28;20015;-73
2022/05/16 07:45:25;;;;;;;;;;;;;;;24.90;nan;99640.13;5006302;28;19988;-73
2022/05/16 07:47:50;;;;;;;;;;;;;;;25.14;nan;99647.81;5008083;28;20023;-73
2022/05/16 07:50:16;;;;;;;;;;;;;;;25.20;nan;99654.31;5006860;28;20042;-73
2022/05/16 07:52:45;;;;;;;;;;;;;;;25.04;nan;99655.38;5007132;28;19972;-73
2022/05/16 07:55:10;;;;;;;;;;;;;;;24.76;nan;99660.59;5006401;28;20441;-73
2022/05/16 07:57:36;;;;;;;;;;;;;;;24.28;nan;99663.69;5004992;28;20027;-73
2022/05/16 08:00:02;;;;;;;;;;;;;;;23.76;nan;99663.69;5007424;28;19984;-73
2022/05/16 08:02:37;;;;;;;;;;;;;;;23.37;nan;99659.31;5007144;28;19995;-72
2022/05/16 08:05:03;;;;;;;;;;;;;;;23.13;nan;99671.88;5007425;28;20235;-73
2022/05/16 08:07:28;;;;;;;;;;;;;;;22.95;nan;99684.66;5006085;28;20292;-73
2022/05/16 08:12:38;;;;;;;;;;;;;;;22.73;nan;99694.31;5005519;28;19964;-74
2022/05/16 08:15:04;;;;;;;;;;;;;;;22.73;nan;99688.94;5006763;28;20079;-73
2022/05/16 08:17:30;;;;;;;;;;;;;;;22.68;nan;99697.53;5006670;28;19972;-74
2022/05/16 08:19:58;;;;;;;;;;;;;;;22.69;nan;99698.34;5005849;28;19988;-73
2022/05/16 08:22:31;;;;;;;;;;;;;;;22.71;nan;99705.22;5005201;28;19995;-74
2022/05/16 08:24:57;;;;;;;;;;;;;;;22.76;nan;99710.03;5004774;28;20016;-75
2022/05/16 08:27:22;;;;;;;;;;;;;;;22.74;nan;99712.91;5005778;28;20498;-77
2022/05/16 08:29:48;;;;;;;;;;;;;;;22.70;nan;99716.91;5006691;28;19961;-77
2022/05/16 08:32:15;;;;;;;;;;;;;;;22.60;nan;99718.13;5006459;28;19960;-76
2022/05/16 08:34:41;;;;;;;;;;;;;;;22.53;nan;99726.03;5006026;28;19968;-77
2022/05/16 08:39:52;;;;;;;;;;;;;;;22.39;nan;99732.91;5005425;28;20058;-74
2022/05/16 08:42:31;;;;;;;;;;;;;;;22.36;nan;99735.94;5006118;28;20325;-74
2022/05/16 08:45:01;;;;;;;;;;;;;;;22.32;nan;99742.63;5004804;28;20452;-73
2022/05/16 08:47:45;;;;;;;;;;;;;;;22.29;nan;99748.31;5005950;28;19978;-73
2022/05/16 08:50:15;;;;;;;;;;;;;;;22.24;nan;99751.50;5005768;28;19968;-73
2022/05/16 08:52:54;;;;;;;;;;;;;;;22.23;nan;99757.88;5006517;28;20447;-73
2022/05/16 08:55:33;;;;;;;;;;;;;;;22.23;nan;99751.69;5004055;28;19984;-73
2022/05/16 08:58:03;;;;;;;;;;;;;;;22.19;nan;99755.69;5004614;28;20420;-74
2022/05/16 09:00:41;;;;;;;;;;;;;;;22.13;nan;99756.34;5005412;28;19988;-73
2022/05/16 09:03:08;;;;;;;;;;;;;;;22.05;nan;99762.53;5004645;28;20034;-73
2022/05/16 09:05:39;;;;;;;;;;;;;;;22.02;nan;99771.72;5005299;28;19988;-73
2022/05/16 09:08:06;;;;;;;;;;;;;;;21.97;nan;99776.72;5005429;28;20436;-72
2022/05/16 09:10:39;;;;;;;;;;;;;;;21.90;nan;99782.91;5005917;28;19968;-72
2022/05/16 09:13:16;;;;;;;;;;;;;;;21.75;nan;99786.25;5004645;28;19998;-71
2022/05/16 09:15:53;;;;;;;;;;;;;;;21.56;nan;99776.69;5006045;28;20337;-72
2022/05/16 09:18:32;;;;;;;;;;;;;;;21.37;nan;99782.31;5003158;28;19971;-72
2022/05/16 09:21:00;;;;;;;;;;;;;;;21.18;nan;99796.78;5002738;28;19939;-72
2022/05/16 09:23:44;;;;;;;;;;;;;;;21.02;nan;99799.38;5005574;28;20409;-72
2022/05/16 09:26:17;;;;;;;;;;;;;;;20.83;nan;99811.13;5005832;28;20434;-71
2022/05/16 09:28:47;;;;;;;;;;;;;;;20.60;nan;99818.81;5005117;28;20331;-71
2022/05/16 09:31:21;;;;;;;;;;;;;;;20.25;nan;99840.06;5004835;28;19954;-72
2022/05/16 09:33:49;;;;;;;;;;;;;;;19.88;nan;99832.25;5005655;28;20414;-71
2022/05/16 09:36:18;;;;;;;;;;;;;;;19.50;nan;99850.13;5005447;28;19992;-72
2022/05/16 09:38:46;;;;;;;;;;;;;;;19.18;nan;99851.41;5005937;28;20047;-72
2022/05/16 09:41:16;;;;;;;;;;;;;;;18.98;nan;99855.13;5005807;28;19980;-73
2022/05/16 09:43:42;;;;;;;;;;;;;;;18.86;nan;99866.94;5004621;28;20521;-72
2022/05/16 09:46:23;;;;;;;;;;;;;;;18.80;nan;99873.69;5003722;28;19980;-72
2022/05/16 09:48:55;;;;;;;;;;;;;;;18.75;nan;99881.25;5004758;28;19964;-72
2022/05/16 09:51:20;;;;;;;;;;;;;;;18.65;nan;99873.25;5009721;28;19965;-73
2022/05/16 09:53:46;;;;;;;;;;;;;;;18.54;nan;99882.22;5004496;28;20014;-71
2022/05/16 09:56:24;;;;;;;;;;;;;;;18.45;nan;99868.97;5004195;28;19980;-71
2022/05/16 09:58:50;;;;;;;;;;;;;;;18.33;nan;99869.13;5004186;28;19980;-71
2022/05/16 10:01:35;;;;;;;;;;;;;;;18.27;nan;99879.47;5004894;28;19968;-71
2022/05/16 10:04:09;;;;;;;;;;;;;;;18.23;nan;99876.25;5005327;28;19972;-71
2022/05/16 10:06:37;;;;;;;;;;;;;;;18.19;nan;99887.28;5004898;28;20928;-72
2022/05/16 10:09:06;;;;;;;;;;;;;;;18.21;nan;99883.53;5004266;28;19971;-72
2022/05/16 10:11:32;;;;;;;;;;;;;;;18.25;nan;99884.06;5005085;28;19972;-72
2022/05/16 10:13:57;;;;;;;;;;;;;;;18.30;nan;99866.72;5005022;28;19975;-72
2022/05/16 10:16:25;;;;;;;;;;;;;;;18.33;nan;99868.25;5003490;28;19979;-72
2022/05/16 10:18:53;;;;;;;;;;;;;;;18.35;nan;99869.78;5005114;28;19999;-71
2022/05/16 10:21:40;;;;;;;;;;;;;;;18.32;nan;99866.59;5004228;28;19967;-71
2022/05/16 10:24:07;;;;;;;;;;;;;;;18.31;nan;99863.09;5004389;28;21286;-72
2022/05/16 10:26:39;;;;;;;;;;;;;;;18.35;nan;99860.97;5004144;28;20346;-72
2022/05/16 10:29:07;;;;;;;;;;;;;;;18.44;nan;99856.63;5019805;28;19972;-72
2022/05/16 10:34:28;;;;;;;;;;;;;;;18.53;nan;99864.59;5003707;28;19972;-73
2022/05/16 10:36:55;;;;;;;;;;;;;;;18.48;nan;99863.34;5002785;28;19980;-72
2022/05/16 10:39:23;;;;;;;;;;;;;;;18.53;nan;99866.44;5002647;28;19967;-72
2022/05/16 10:42:03;;;;;;;;;;;;;;;18.63;nan;99861.91;5004288;28;19978;-72
2022/05/16 10:44:39;;;;;;;;;;;;;;;18.76;nan;99862.47;5014757;28;20059;-69
2022/05/16 10:47:14;;;;;;;;;;;;;;;18.81;nan;99859.38;5026872;28;19999;-72
2022/05/16 10:49:48;;;;;;;;;;;;;;;18.85;nan;99859.94;5026534;28;19975;-71
2022/05/16 10:52:25;;;;;;;;;;;;;;;18.94;nan;99864.41;5015745;28;19990;-72
2022/05/16 10:54:50;;;;;;;;;;;;;;;19.07;nan;99864.09;5010826;28;19975;-74
2022/05/16 10:57:32;;;;;;;;;;;;;;;19.20;nan;99868.09;5011906;28;19968;-73
2022/05/16 11:00:07;;;;;;;;;;;;;;;19.27;nan;99856.84;5009172;28;20023;-75
2022/05/16 11:02:36;;;;;;;;;;;;;;;19.31;nan;99855.53;5008071;28;19968;-72
2022/05/16 11:05:13;;;;;;;;;;;;;;;19.39;nan;99858.34;5010014;28;20536;-75
2022/05/16 11:07:42;;;;;;;;;;;;;;;19.39;nan;99858.34;5016667;23;21073;-72
2022/05/16 11:10:17;;;;;;;;;;;;;;;19.41;nan;99851.84;5000062;28;19968;-72
2022/05/16 11:13:00;;;;;;;;;;;;;;;19.58;nan;99842.22;5005291;28;19999;-72
2022/05/16 11:15:28;;;;;;;;;;;;;;;19.78;nan;99837.63;5008611;28;19974;-72
2022/05/16 11:18:23;;;;;;;;;;;;;;;19.91;nan;99833.78;5005579;28;20216;-72
2022/05/16 11:20:55;;;;;;;;;;;;;;;20.01;nan;99832.69;4984298;28;20190;-72
2022/05/16 11:23:51;;;;;;;;;;;;;;;20.22;nan;99828.84;4993555;28;19972;-72
2022/05/16 11:26:20;;;;;;;;;;;;;;;20.38;nan;99834.31;4991688;28;20618;-73
2022/05/16 11:31:43;;;;;;;;;;;;;;;20.94;nan;99825.03;4998347;28;19973;-73
2022/05/16 11:34:14;;;;;;;;;;;;;;;21.24;nan;99827.34;4999680;28;19972;-74
2022/05/16 11:37:05;;;;;;;;;;;;;;;21.38;nan;99835.59;4993599;28;20245;-73
2022/05/16 11:39:40;;;;;;;;;;;;;;;21.54;nan;99820.63;4996576;28;20095;-73
2022/05/16 11:42:27;;;;;;;;;;;;;;;21.86;nan;99820.69;4998344;28;19991;-74
2022/05/16 11:45:13;;;;;;;;;;;;;;;22.15;nan;99811.34;4996501;28;19978;-74
2022/05/16 11:47:44;;;;;;;;;;;;;;;22.36;nan;99818.03;4993777;28;19984;-73
2022/05/16 11:50:28;;;;;;;;;;;;;;;22.60;nan;99812.69;4997136;28;20753;-74
2022/05/16 11:52:59;;;;;;;;;;;;;;;22.80;nan;99807.78;4997501;28;19968;-74
2022/05/16 12:00:58;;;;;;;;;;;;;;;22.91;nan;99794.00;4996031;28;19950;-73
2022/05/16 12:03:32;;;;;;;;;;;;;;;22.88;nan;99793.53;4997482;28;19937;-73
2022/05/16 12:06:13;;;;;;;;;;;;;;;22.98;nan;99783.47;4995472;28;20250;-73
2022/05/16 12:08:40;;;;;;;;;;;;;;;23.02;nan;99779.44;4992370;28;19965;-73
2022/05/16 12:11:06;;;;;;;;;;;;;;;23.05;nan;99778.25;5000167;28;20001;-73
2022/05/16 12:13:33;;;;;;;;;;;;;;;23.17;nan;99777.69;5003008;28;20025;-73
2022/05/16 12:16:17;;;;;;;;;;;;;;;23.27;nan;99772.09;4993497;28;20131;-73
2022/05/16 12:18:46;;;;;;;;;;;;;;;23.34;nan;99764.22;4997956;28;20027;-73
2022/05/16 12:21:18;;;;;;;;;;;;;;;23.44;nan;99772.00;5000177;28;19964;-73
2022/05/16 12:23:49;;;;;;;;;;;;;;;23.50;nan;99766.78;4993248;28;20002;-75
2022/05/16 12:26:26;;;;;;;;;;;;;;;23.57;nan;99766.91;4994599;28;19931;-73
2022/05/16 12:29:13;;;;;;;;;;;;;;;23.64;nan;99771.38;4995719;28;20028;-74
2022/05/16 12:31:40;;;;;;;;;;;;;;;23.59;nan;99765.72;4990975;28;20034;-74
2022/05/16 12:34:05;;;;;;;;;;;;;;;23.59;nan;99765.72;4994873;28;19943;-75
2022/05/16 12:36:30;;;;;;;;;;;;;;;23.62;nan;99764.53;4992012;28;20384;-74
2022/05/16 12:39:03;;;;;;;;;;;;;;;23.66;nan;99767.72;5000301;28;20046;-74
2022/05/16 12:41:44;;;;;;;;;;;;;;;23.71;nan;99754.56;4997425;28;19955;-74
2022/05/16 12:44:17;;;;;;;;;;;;;;;23.84;nan;99760.19;4994287;28;20408;-75
2022/05/16 12:46:49;;;;;;;;;;;;;;;23.90;nan;99755.97;4990670;28;19974;-74
2022/05/16 12:49:33;;;;;;;;;;;;;;;23.85;nan;99751.16;4998097;28;19943;-74
2022/05/16 12:51:59;;;;;;;;;;;;;;;23.70;nan;99755.59;4995767;28;19935;-74
2022/05/16 12:54:44;;;;;;;;;;;;;;;23.67;nan;99750.59;4996405;28;19934;-74
2022/05/16 12:57:22;;;;;;;;;;;;;;;23.77;nan;99751.22;4994534;28;19950;-74
2022/05/16 13:00:04;;;;;;;;;;;;;;;23.80;nan;99748.19;4992678;28;20050;-74
2022/05/16 13:02:33;;;;;;;;;;;;;;;23.49;nan;99748.19;4992217;28;19970;-74
2022/05/16 13:05:05;;;;;;;;;;;;;;;23.26;nan;99743.66;4997488;28;19935;-74
2022/05/16 13:07:37;;;;;;;;;;;;;;;23.25;nan;99735.75;4996754;28;20362;-74
2022/05/16 13:10:09;;;;;;;;;;;;;;;23.30;nan;99738.75;5000227;28;20037;-74
2022/05/16 13:12:34;;;;;;;;;;;;;;;23.33;nan;99733.03;4995256;28;20383;-74
2022/05/16 13:15:02;;;;;;;;;;;;;;;23.33;nan;99730.34;4994505;28;19941;-74
2022/05/16 13:17:30;;;;;;;;;;;;;;;23.26;nan;99732.09;4997192;28;19955;-74
2022/05/16 13:19:56;;;;;;;;;;;;;;;23.22;nan;99733.44;4991643;28;20180;-74
2022/05/16 13:22:22;;;;;;;;;;;;;;;23.25;nan;99730.41;4993602;28;19941;-74
2022/05/16 13:24:52;;;;;;;;;;;;;;;23.24;nan;99734.94;4998215;28;19977;-74
2022/05/16 13:30:03;;;;;;;;;;;;;;;23.10;nan;99722.31;4977246;28;19983;-74
2022/05/16 13:32:30;;;;;;;;;;;;;;;23.06;nan;99726.31;4975028;28;19937;-75
2022/05/16 13:34:59;;;;;;;;;;;;;;;23.05;nan;99725.50;4977372;28;19935;-74
2022/05/16 13:37:29;;;;;;;;;;;;;;;23.05;nan;99720.13;4977607;28;20046;-74
2022/05/16 13:40:01;;;;;;;;;;;;;;;23.09;nan;99721.47;4977483;28;19956;-74
2022/05/16 13:42:27;;;;;;;;;;;;;;;23.27;nan;99720.34;4974645;28;19963;-74
2022/05/16 13:44:56;;;;;;;;;;;;;;;23.53;nan;99720.84;4978822;28;20002;-74
2022/05/16 13:47:23;;;;;;;;;;;;;;;23.70;nan;99715.38;4981603;28;20464;-74
2022/05/16 13:49:49;;;;;;;;;;;;;;;23.52;nan;99719.19;4990544;28;19937;-74
2022/05/16 13:52:16;;;;;;;;;;;;;;;23.40;nan;99731.31;4974139;28;20319;-74
2022/05/16 13:54:51;;;;;;;;;;;;;;;23.39;58.76;99721.63;5082611;27;19963;-72